Skelton, Minnesota
Current Conditions -  °F | °C
As of 5:13 PM on Saturday 25 Oct 2014 (Local Time) from KMZH Reporting Station
Clear Clear  
Wind Chill: 57°   Ceiling: Unl
Heat Index: 57°   Visibility: 10mi
Dew Point: 27°   Wind: 10mph
Humidity: 31%   Direction: 310°NW
Pressure: 29.97"   Gusts: 21mph
Location:  46.5379°N, 92.621°W
Report Text: KMZH 252213Z AUTO 31009G18KT 10SM CLR 14/M03 A2997 RMK AO2
Loading
Personal Weather Stations






























Interactive Weather Map
Tropical Storm Tracking
New forecast layout! Learn more

10-Day Weather Forecast

Advertisements
Track Severe Weather on mobile